createdAt,value
2018-06-01T00:01:16.068Z,1.37
2018-06-01T00:03:47.702Z,1.20
2018-06-01T00:06:20.653Z,1.20
2018-06-01T00:12:56.608Z,1.27
2018-06-01T00:15:29.007Z,1.37
2018-06-01T00:18:05.170Z,1.27
2018-06-01T00:20:37.260Z,1.20
2018-06-01T00:23:08.976Z,1.40
2018-06-01T00:25:40.116Z,1.27
2018-06-01T00:30:04.329Z,1.40
2018-06-01T00:33:57.737Z,1.93
2018-06-01T00:36:28.899Z,1.60
2018-06-01T00:41:57.519Z,1.90
2018-06-01T00:44:38.069Z,1.50
2018-06-01T00:47:11.755Z,1.60
2018-06-01T00:49:43.274Z,1.70
2018-06-01T00:52:18.547Z,1.83
2018-06-01T00:57:44.645Z,1.90
2018-06-01T01:05:51.457Z,1.77
2018-06-01T01:08:23.067Z,2.00
2018-06-01T01:10:55.578Z,1.70
2018-06-01T01:13:29.577Z,1.80
2018-06-01T01:21:51.957Z,1.50
2018-06-01T01:24:23.438Z,1.80
2018-06-01T01:31:32.606Z,1.50
2018-06-01T01:34:03.736Z,1.83
2018-06-01T01:36:35.514Z,2.00
2018-06-01T01:39:17.387Z,1.90
2018-06-01T01:41:58.807Z,1.90
2018-06-01T01:44:30.713Z,1.90
2018-06-01T01:47:11.178Z,2.00
2018-06-01T01:49:42.276Z,2.13
2018-06-01T01:52:13.679Z,2.20
2018-06-01T01:54:51.024Z,1.83
2018-06-01T01:57:22.206Z,2.00
2018-06-01T01:59:54.319Z,2.17
2018-06-01T02:02:29.144Z,1.93
2018-06-01T02:05:00.494Z,2.23
2018-06-01T02:07:31.809Z,1.80
2018-06-01T02:10:10.458Z,2.00
2018-06-01T02:12:44.227Z,2.57
2018-06-01T02:15:28.338Z,2.23
2018-06-01T02:18:00.454Z,2.40
2018-06-01T02:20:31.904Z,2.60
2018-06-01T02:23:05.302Z,2.50
2018-06-01T02:28:40.420Z,3.37
2018-06-01T02:31:12.719Z,2.43
2018-06-01T02:33:44.940Z,2.37
2018-06-01T02:36:16.491Z,2.53
2018-06-01T02:38:53.425Z,3.10
2018-06-01T02:41:24.667Z,2.80
2018-06-01T02:44:00.357Z,3.00
2018-06-01T02:46:32.261Z,2.60
2018-06-01T02:49:05.148Z,2.70
2018-06-01T02:51:37.208Z,3.20
2018-06-01T02:54:11.111Z,3.07
2018-06-01T02:56:42.318Z,3.33
2018-06-01T02:59:13.508Z,3.40
2018-06-01T03:02:07.509Z,3.30
2018-06-01T03:04:38.615Z,3.20
2018-06-01T03:07:14.589Z,3.60
2018-06-01T03:09:46.477Z,3.10
2018-06-01T03:12:17.732Z,3.70
2018-06-01T03:15:08.311Z,3.10
2018-06-01T03:17:44.799Z,2.87
2018-06-01T03:20:15.828Z,3.00
2018-06-01T03:22:52.777Z,3.00
2018-06-01T03:25:24.215Z,3.10
2018-06-01T03:27:55.381Z,3.50
2018-06-01T03:30:30.510Z,3.00
2018-06-01T03:33:03.369Z,2.77
2018-06-01T03:35:35.338Z,3.00
2018-06-01T03:38:28.161Z,3.03
2018-06-01T03:40:59.258Z,2.90
2018-06-01T03:43:30.471Z,3.80
2018-06-01T03:46:01.960Z,3.10
2018-06-01T03:48:34.758Z,3.40
2018-06-01T03:51:06.284Z,3.23
2018-06-01T03:53:47.079Z,3.17
2018-06-01T03:56:19.086Z,3.40
2018-06-01T03:58:50.264Z,3.37
2018-06-01T04:01:27.258Z,3.40
2018-06-01T04:03:58.398Z,3.33
2018-06-01T04:06:42.303Z,3.50
2018-06-01T04:09:13.606Z,3.90
2018-06-01T04:11:45.580Z,3.33
2018-06-01T04:14:18.437Z,4.40
2018-06-01T04:16:50.151Z,4.30
2018-06-01T04:19:28.078Z,4.33
2018-06-01T04:21:59.123Z,4.77
2018-06-01T04:24:31.292Z,4.30
2018-06-01T04:27:25.692Z,3.90
2018-06-01T04:29:56.971Z,4.43
2018-06-01T04:32:28.632Z,4.63
2018-06-01T04:35:00.063Z,4.27
2018-06-01T04:37:37.584Z,4.07
2018-06-01T04:40:09.700Z,4.13
2018-06-01T04:42:57.675Z,4.77
2018-06-01T04:45:33.496Z,4.57
2018-06-01T04:48:17.869Z,4.73
2018-06-01T04:50:57.001Z,4.60
2018-06-01T04:57:32.562Z,5.47
2018-06-01T05:00:08.049Z,5.07
2018-06-01T05:02:39.602Z,5.23
2018-06-01T05:05:15.387Z,5.67
2018-06-01T05:08:10.707Z,5.93
2018-06-01T05:10:53.973Z,5.97
2018-06-01T05:13:26.923Z,5.90
2018-06-01T05:16:04.770Z,5.73
2018-06-01T05:24:18.310Z,7.90
2018-06-01T05:29:45.571Z,4.57
2018-06-01T05:32:20.863Z,4.80
2018-06-01T05:34:55.494Z,4.83
2018-06-01T05:37:29.221Z,5.60
2018-06-01T05:40:00.549Z,4.37
2018-06-01T05:42:33.536Z,4.90
2018-06-01T05:45:10.955Z,5.57
2018-06-01T05:47:42.002Z,4.97
2018-06-01T05:50:18.491Z,4.90
2018-06-01T05:52:51.080Z,5.60
2018-06-01T05:55:22.310Z,5.07
2018-06-01T05:57:58.508Z,4.97
2018-06-01T06:00:29.728Z,4.23
2018-06-01T06:03:02.076Z,4.23
2018-06-01T06:05:34.967Z,4.27
2018-06-01T06:08:06.527Z,4.53
2018-06-01T06:10:38.196Z,4.30
2018-06-01T06:13:09.546Z,4.47
2018-06-01T06:15:41.145Z,3.90
2018-06-01T06:18:20.932Z,3.63
2018-06-01T06:20:52.685Z,4.20
2018-06-01T06:23:30.621Z,4.33
2018-06-01T06:26:02.014Z,3.83
2018-06-01T06:28:35.637Z,4.10
2018-06-01T06:31:07.920Z,4.23
2018-06-01T06:33:39.453Z,5.13
2018-06-01T06:36:10.736Z,4.73
2018-06-01T06:38:48.840Z,4.53
2018-06-01T06:41:20.514Z,4.37
2018-06-01T06:43:51.641Z,4.23
2018-06-01T06:46:23.081Z,4.00
2018-06-01T06:48:54.112Z,4.13
2018-06-01T06:51:25.188Z,4.20
2018-06-01T06:53:56.195Z,4.20
2018-06-01T06:56:27.280Z,3.70
2018-06-01T06:58:59.398Z,4.00
2018-06-01T07:01:35.141Z,3.93
2018-06-01T07:04:15.418Z,4.00
2018-06-01T07:06:46.597Z,3.53
2018-06-01T07:09:19.048Z,3.70
2018-06-01T07:11:50.355Z,3.77
2018-06-01T07:14:21.435Z,3.87
2018-06-01T07:16:55.958Z,3.87
2018-06-01T07:19:29.414Z,3.53
2018-06-01T07:22:00.802Z,4.20
2018-06-01T07:24:33.320Z,3.87
2018-06-01T07:27:04.453Z,3.30
2018-06-01T07:29:35.540Z,3.70
2018-06-01T07:32:08.131Z,4.00
2018-06-01T07:34:51.225Z,3.57
2018-06-01T07:37:30.529Z,3.80
2018-06-01T07:40:11.260Z,3.63
2018-06-01T07:42:42.941Z,3.80
2018-06-01T07:45:14.374Z,4.00
2018-06-01T07:47:53.402Z,4.23
2018-06-01T07:50:25.834Z,3.53
2018-06-01T07:52:57.155Z,3.03
2018-06-01T07:58:30.909Z,3.43
2018-06-01T08:01:02.104Z,3.60
2018-06-01T08:03:34.548Z,3.30
2018-06-01T08:06:05.916Z,3.40
2018-06-01T08:08:38.140Z,3.50
2018-06-01T08:11:09.637Z,3.20
2018-06-01T08:13:40.878Z,3.87
2018-06-01T08:16:18.068Z,3.70
2018-06-01T08:18:49.317Z,3.47
2018-06-01T08:21:20.937Z,3.30
2018-06-01T08:23:52.888Z,3.10
2018-06-01T08:26:32.532Z,3.57
2018-06-01T08:29:03.622Z,3.50
2018-06-01T08:34:22.345Z,3.90
2018-06-01T08:39:38.426Z,3.10
2018-06-01T08:42:11.337Z,3.37
2018-06-01T08:44:44.271Z,3.07
2018-06-01T08:47:16.123Z,3.40
2018-06-01T08:49:49.988Z,2.87
2018-06-01T08:52:22.716Z,2.90
2018-06-01T08:54:55.221Z,3.17
2018-06-01T08:57:37.353Z,3.10
2018-06-01T09:00:14.581Z,3.33
2018-06-01T09:02:50.668Z,3.60
2018-06-01T09:05:22.357Z,3.10
2018-06-01T09:07:54.884Z,3.27
2018-06-01T09:10:27.431Z,3.20
2018-06-01T09:12:59.556Z,3.07
2018-06-01T09:15:31.050Z,3.43
2018-06-01T09:18:02.184Z,3.03
2018-06-01T09:20:35.251Z,2.90
2018-06-01T09:23:06.803Z,3.30
2018-06-01T09:25:38.514Z,2.87
2018-06-01T09:28:21.385Z,2.90
2018-06-01T09:30:56.592Z,2.97
2018-06-01T09:33:28.153Z,3.70
2018-06-01T09:36:00.518Z,2.97
2018-06-01T09:38:32.508Z,3.17
2018-06-01T09:41:03.699Z,3.10
2018-06-01T09:43:35.129Z,2.73
2018-06-01T09:46:06.563Z,2.60
2018-06-01T09:48:37.842Z,2.73
2018-06-01T09:51:11.707Z,3.00
2018-06-01T09:53:42.984Z,2.40
2018-06-01T09:56:14.762Z,2.97
2018-06-01T09:58:46.277Z,2.93
2018-06-01T10:01:22.219Z,2.57
2018-06-01T10:03:53.980Z,3.03
2018-06-01T10:06:25.102Z,2.50
2018-06-01T10:09:09.645Z,3.00
2018-06-01T10:11:41.253Z,2.60
2018-06-01T10:14:17.784Z,2.70
2018-06-01T10:16:49.869Z,2.37
2018-06-01T10:19:22.962Z,2.57
2018-06-01T10:21:58.817Z,2.67
2018-06-01T10:24:37.067Z,2.83
2018-06-01T10:27:12.946Z,2.90
2018-06-01T10:29:44.082Z,2.83
2018-06-01T10:32:18.377Z,2.63
2018-06-01T10:34:49.728Z,3.03
2018-06-01T10:37:21.074Z,3.30
2018-06-01T10:39:52.223Z,2.90
2018-06-01T10:42:44.834Z,2.60
2018-06-01T10:45:16.332Z,2.83
2018-06-01T10:47:48.011Z,3.30
2018-06-01T10:50:21.821Z,3.03
2018-06-01T10:52:53.141Z,2.93
2018-06-01T10:55:25.979Z,2.93
2018-06-01T10:57:59.069Z,3.13
2018-06-01T11:00:30.680Z,2.93
2018-06-01T11:03:02.431Z,2.90
2018-06-01T11:05:33.840Z,3.17
2018-06-01T11:08:07.718Z,3.00
2018-06-01T11:10:39.934Z,2.97
2018-06-01T11:13:34.613Z,3.30
2018-06-01T11:16:08.331Z,3.03
2018-06-01T11:18:54.196Z,3.03
2018-06-01T11:21:25.760Z,3.10
2018-06-01T11:23:57.726Z,3.00
2018-06-01T11:29:25.202Z,2.70
2018-06-01T11:31:58.379Z,3.17
2018-06-01T11:34:29.768Z,3.40
2018-06-01T11:37:00.938Z,3.47
2018-06-01T11:39:32.731Z,3.17
2018-06-01T11:42:04.019Z,3.20
2018-06-01T11:44:35.178Z,3.23
2018-06-01T11:47:06.649Z,3.00
2018-06-01T11:49:42.808Z,3.17
2018-06-01T11:52:14.912Z,3.20
2018-06-01T11:54:46.327Z,3.03
2018-06-01T11:57:24.528Z,2.90
2018-06-01T11:59:56.432Z,3.23
2018-06-01T12:02:28.715Z,2.97
2018-06-01T12:07:36.236Z,3.40
2018-06-01T12:10:07.850Z,3.17
2018-06-01T12:12:59.332Z,2.80
2018-06-01T12:15:32.088Z,2.57
2018-06-01T12:18:03.706Z,2.43
2018-06-01T12:20:53.220Z,2.10
2018-06-01T12:23:25.010Z,2.17
2018-06-01T12:26:18.949Z,2.20
2018-06-01T12:29:14.257Z,2.33
2018-06-01T12:31:46.949Z,2.10
2018-06-01T12:34:20.529Z,2.50
2018-06-01T12:36:52.094Z,2.00
2018-06-01T12:39:23.188Z,1.93
2018-06-01T12:41:54.937Z,2.57
2018-06-01T12:44:41.165Z,2.90
2018-06-01T12:47:12.568Z,2.87
2018-06-01T12:49:44.180Z,2.63
2018-06-01T12:52:22.300Z,2.50
2018-06-01T12:54:54.165Z,2.50
2018-06-01T12:57:26.328Z,2.30
2018-06-01T12:59:57.681Z,2.47
2018-06-01T13:02:29.500Z,2.37
2018-06-01T13:05:00.993Z,2.50
2018-06-01T13:07:32.376Z,2.37
2018-06-01T13:10:03.713Z,2.40
2018-06-01T13:12:44.170Z,2.30
2018-06-01T13:15:16.772Z,2.03
2018-06-01T13:17:48.117Z,2.20
2018-06-01T13:20:24.571Z,2.00
2018-06-01T13:22:56.379Z,2.10
2018-06-01T13:25:33.247Z,2.10
2018-06-01T13:28:05.576Z,2.03
2018-06-01T13:30:38.976Z,1.93
2018-06-01T13:33:10.528Z,2.10
2018-06-01T13:35:41.641Z,1.93
2018-06-01T13:38:14.324Z,2.30
2018-06-01T13:40:46.086Z,1.97
2018-06-01T13:43:17.686Z,2.00
2018-06-01T13:45:49.023Z,2.13
2018-06-01T13:48:26.820Z,2.10
2018-06-01T13:50:57.951Z,2.40
2018-06-01T13:53:30.169Z,2.20
2018-06-01T13:56:07.543Z,2.17
2018-06-01T13:58:39.324Z,1.87
2018-06-01T14:01:11.184Z,2.00
2018-06-01T14:03:45.484Z,1.90
2018-06-01T14:06:22.044Z,1.87
2018-06-01T14:08:53.864Z,1.80
2018-06-01T14:11:28.025Z,1.87
2018-06-01T14:13:59.835Z,2.00
2018-06-01T14:16:32.359Z,1.80
2018-06-01T14:19:15.694Z,2.20
2018-06-01T14:21:46.887Z,1.70
2018-06-01T14:24:18.762Z,2.10
2018-06-01T14:26:51.536Z,2.10
2018-06-01T14:29:23.378Z,2.50
2018-06-01T14:31:54.685Z,2.50
2018-06-01T14:37:09.345Z,2.50
2018-06-01T14:39:42.364Z,2.53
2018-06-01T14:42:18.925Z,2.80
2018-06-01T14:44:50.417Z,2.77
2018-06-01T14:47:36.120Z,2.80
2018-06-01T14:50:10.597Z,2.90
2018-06-01T14:52:44.410Z,2.70
2018-06-01T14:55:16.725Z,2.90
2018-06-01T14:57:48.622Z,2.47
2018-06-01T15:00:20.119Z,2.97
2018-06-01T15:02:51.527Z,2.90
2018-06-01T15:05:23.546Z,2.73
2018-06-01T15:07:55.192Z,2.57
2018-06-01T15:10:29.217Z,2.80
2018-06-01T15:13:00.776Z,2.93
2018-06-01T15:15:32.616Z,2.70
2018-06-01T15:18:05.596Z,2.50
2018-06-01T15:20:37.503Z,2.57
2018-06-01T15:23:08.819Z,3.10
2018-06-01T15:25:40.129Z,2.80
2018-06-01T15:28:11.959Z,2.90
2018-06-01T15:30:43.000Z,2.80
2018-06-01T15:33:14.510Z,2.57
2018-06-01T15:35:46.329Z,2.57
2018-06-01T15:38:17.603Z,3.03
2018-06-01T15:40:51.508Z,2.80
2018-06-01T15:43:22.913Z,3.33
2018-06-01T15:45:54.124Z,2.73
2018-06-01T15:48:25.717Z,2.77
2018-06-01T15:50:59.199Z,3.17
2018-06-01T15:53:30.353Z,2.57
2018-06-01T15:56:01.500Z,2.47
2018-06-01T15:58:33.092Z,2.60
2018-06-01T16:01:07.348Z,2.17
2018-06-01T16:03:39.442Z,2.70
2018-06-01T16:06:17.414Z,2.60
2018-06-01T16:08:52.315Z,2.50
2018-06-01T16:11:25.063Z,2.53
2018-06-01T16:14:05.744Z,2.47
2018-06-01T16:16:37.170Z,2.40
2018-06-01T16:19:18.536Z,4.17
2018-06-01T16:21:51.440Z,2.60
2018-06-01T16:24:42.901Z,2.53
2018-06-01T16:27:20.067Z,2.43
2018-06-01T16:29:52.114Z,2.20
2018-06-01T16:32:26.661Z,2.70
2018-06-01T16:35:02.778Z,2.60
2018-06-01T16:37:37.332Z,2.80
2018-06-01T16:40:12.461Z,2.43
2018-06-01T16:42:50.498Z,2.33
2018-06-01T16:45:22.767Z,3.17
2018-06-01T16:48:12.989Z,2.77
2018-06-01T16:50:45.607Z,3.00
2018-06-01T16:53:19.249Z,2.60
2018-06-01T16:55:53.055Z,3.37
2018-06-01T17:01:14.690Z,2.80
2018-06-01T17:03:46.238Z,2.67
2018-06-01T17:06:35.168Z,2.43
2018-06-01T17:09:07.259Z,3.30
2018-06-01T17:11:44.620Z,3.47
2018-06-01T17:14:17.913Z,2.80
2018-06-01T17:16:54.035Z,3.00
2018-06-01T17:19:25.748Z,2.63
2018-06-01T17:21:57.312Z,3.37
2018-06-01T17:27:28.703Z,2.80
2018-06-01T17:30:01.022Z,4.60
2018-06-01T17:32:37.648Z,3.67
2018-06-01T17:35:20.668Z,8.93
2018-06-01T17:37:52.568Z,3.30
2018-06-01T17:40:28.028Z,4.30
2018-06-01T17:43:01.424Z,2.80
2018-06-01T17:45:35.642Z,2.50
2018-06-01T17:48:13.642Z,8.97
2018-06-01T17:50:47.689Z,3.43
2018-06-01T17:53:20.226Z,3.43
2018-06-01T17:55:52.803Z,2.57
2018-06-01T17:58:27.632Z,2.53
2018-06-01T18:00:59.599Z,2.90
2018-06-01T18:03:39.542Z,2.90
2018-06-01T18:06:11.110Z,2.87
2018-06-01T18:08:42.284Z,2.57
2018-06-01T18:11:13.823Z,2.77
2018-06-01T18:13:46.073Z,2.47
2018-06-01T18:16:18.382Z,3.83
2018-06-01T18:18:49.761Z,2.90
2018-06-01T18:21:21.862Z,3.43
2018-06-01T18:23:53.871Z,3.30
2018-06-01T18:26:25.386Z,3.17
2018-06-01T18:28:56.678Z,3.20
2018-06-01T18:31:30.795Z,2.80
2018-06-01T18:34:02.625Z,4.60
2018-06-01T18:36:34.015Z,3.93
2018-06-01T18:39:07.406Z,3.70
2018-06-01T18:41:39.992Z,2.93
2018-06-01T18:46:59.427Z,2.87
2018-06-01T18:49:32.504Z,2.20
2018-06-01T18:52:04.571Z,3.00
2018-06-01T18:54:44.950Z,2.43
2018-06-01T18:57:16.569Z,2.57
2018-06-01T18:59:47.847Z,2.63
2018-06-01T19:02:19.198Z,2.80
2018-06-01T19:04:52.817Z,2.50
2018-06-01T19:07:24.146Z,2.80
2018-06-01T19:09:55.465Z,2.43
2018-06-01T19:12:29.689Z,2.60
2018-06-01T19:15:00.944Z,3.07
2018-06-01T19:17:32.746Z,2.63
2018-06-01T19:20:04.456Z,3.57
2018-06-01T19:22:35.989Z,3.10
2018-06-01T19:25:07.720Z,2.87
2018-06-01T19:27:39.492Z,2.37
2018-06-01T19:30:11.178Z,3.20
2018-06-01T19:32:42.681Z,2.67
2018-06-01T19:35:14.367Z,2.80
2018-06-01T19:37:46.408Z,3.00
2018-06-01T19:40:17.566Z,2.73
2018-06-01T19:42:50.038Z,2.27
2018-06-01T19:45:21.172Z,3.20
2018-06-01T19:47:52.274Z,2.83
2018-06-01T19:53:25.216Z,2.67
2018-06-01T19:58:33.240Z,2.50
2018-06-01T20:01:10.942Z,2.63
2018-06-01T20:03:42.901Z,3.13
2018-06-01T20:06:14.198Z,3.13
2018-06-01T20:08:50.772Z,2.93
2018-06-01T20:11:22.044Z,2.70
2018-06-01T20:13:53.893Z,4.10
2018-06-01T20:16:31.271Z,3.07
2018-06-01T20:19:02.792Z,2.83
2018-06-01T20:21:34.982Z,3.30
2018-06-01T20:24:07.455Z,3.30
2018-06-01T20:26:39.011Z,3.37
2018-06-01T20:29:12.037Z,3.60
2018-06-01T20:31:43.855Z,4.03
2018-06-01T20:34:15.786Z,3.27
2018-06-01T20:36:53.120Z,3.70
2018-06-01T20:39:25.209Z,8.93
2018-06-01T20:41:57.783Z,12.00
2018-06-01T20:44:30.275Z,5.07
2018-06-01T20:47:03.459Z,4.03
2018-06-01T20:49:36.416Z,3.10
2018-06-01T20:52:10.885Z,2.67
2018-06-01T20:54:43.252Z,3.20
2018-06-01T20:57:14.997Z,2.90
2018-06-01T20:59:46.904Z,3.20
2018-06-01T21:02:18.530Z,2.60
2018-06-01T21:04:50.218Z,3.33
2018-06-01T21:07:30.600Z,2.90
2018-06-01T21:10:01.930Z,3.60
2018-06-01T21:12:33.288Z,4.53
2018-06-01T21:15:04.467Z,3.20
2018-06-01T21:17:45.359Z,2.80
2018-06-01T21:20:17.185Z,2.70
2018-06-01T21:22:48.602Z,4.03
2018-06-01T21:25:20.029Z,3.17
2018-06-01T21:27:52.332Z,3.30
2018-06-01T21:30:23.927Z,3.80
2018-06-01T21:32:56.243Z,3.93
2018-06-01T21:35:28.692Z,3.63
2018-06-01T21:38:00.360Z,3.10
2018-06-01T21:40:31.775Z,3.00
2018-06-01T21:43:05.961Z,3.20
2018-06-01T21:45:38.188Z,3.50
2018-06-01T21:48:09.300Z,3.53
2018-06-01T21:50:42.300Z,3.40
2018-06-01T21:53:15.261Z,2.70
2018-06-01T21:55:48.706Z,3.03
2018-06-01T21:58:22.503Z,4.30
2018-06-01T22:00:53.853Z,3.60
2018-06-01T22:03:25.128Z,3.40
2018-06-01T22:05:56.336Z,3.23
2018-06-01T22:08:30.329Z,3.00
2018-06-01T22:11:01.465Z,2.67
2018-06-01T22:13:32.592Z,3.07
2018-06-01T22:16:03.763Z,3.27
2018-06-01T22:18:35.044Z,3.30
2018-06-01T22:21:06.755Z,3.13
2018-06-01T22:26:44.486Z,3.47
2018-06-01T22:29:15.637Z,2.90
2018-06-01T22:31:47.003Z,3.47
2018-06-01T22:34:18.202Z,3.27
2018-06-01T22:37:05.942Z,3.37
2018-06-01T22:39:37.411Z,3.13
2018-06-01T22:42:14.457Z,3.30
2018-06-01T22:44:46.215Z,3.33
2018-06-01T22:47:30.160Z,4.50
2018-06-01T22:50:01.562Z,4.50
2018-06-01T22:52:33.380Z,4.17
2018-06-01T22:55:04.628Z,3.30
2018-06-01T22:57:37.085Z,3.00
2018-06-01T23:00:09.273Z,2.87
2018-06-01T23:02:42.756Z,3.30
2018-06-01T23:05:15.044Z,3.20
2018-06-01T23:07:46.503Z,3.67
2018-06-01T23:10:18.457Z,3.27
2018-06-01T23:12:53.725Z,3.80
2018-06-01T23:15:25.769Z,3.30
2018-06-01T23:18:07.526Z,3.60
2018-06-01T23:20:39.582Z,3.70
2018-06-01T23:23:12.303Z,3.53
2018-06-01T23:25:44.468Z,3.70
2018-06-01T23:28:16.453Z,3.90
2018-06-01T23:30:47.773Z,3.50
2018-06-01T23:33:19.771Z,3.60
2018-06-01T23:35:51.154Z,3.63
2018-06-01T23:38:25.360Z,3.30
2018-06-01T23:40:58.494Z,3.30
2018-06-01T23:43:30.499Z,3.50
2018-06-01T23:46:02.675Z,3.20
2018-06-01T23:48:34.614Z,3.10
2018-06-01T23:51:07.119Z,3.23
2018-06-01T23:53:41.485Z,3.43
2018-06-01T23:56:15.904Z,3.73
2018-06-01T23:58:47.795Z,3.70
